createdAt,value
2023-05-08T00:02:05.685Z,99366.43
2023-05-08T00:04:38.667Z,99368.59
2023-05-08T00:07:11.130Z,99367.02
2023-05-08T00:09:48.942Z,99366.90
2023-05-08T00:12:21.489Z,99365.47
2023-05-08T00:14:53.675Z,99372.31
2023-05-08T00:17:28.216Z,99370.69
2023-05-08T00:20:00.471Z,99368.52
2023-05-08T00:22:32.757Z,99369.09
2023-05-08T00:25:05.832Z,99365.35
2023-05-08T00:27:41.293Z,99366.69
2023-05-08T00:30:14.903Z,99366.13
2023-05-08T00:32:47.428Z,99367.92
2023-05-08T00:35:19.778Z,99371.05
2023-05-08T00:37:51.929Z,99367.98
2023-05-08T00:40:24.065Z,99369.19
2023-05-08T00:42:56.457Z,99371.61
2023-05-08T00:45:33.884Z,99376.77
2023-05-08T00:48:09.265Z,99382.90
2023-05-08T00:50:42.037Z,99382.73
2023-05-08T00:53:18.454Z,99387.13
2023-05-08T00:55:53.961Z,99388.15
2023-05-08T00:58:29.289Z,99390.98
2023-05-08T01:01:01.933Z,99392.55
2023-05-08T01:03:37.024Z,99397.34
2023-05-08T01:06:10.309Z,99398.66
2023-05-08T01:08:46.613Z,99400.23
2023-05-08T01:11:26.360Z,99401.45
2023-05-08T01:14:09.061Z,99403.14
2023-05-08T01:16:46.183Z,99409.89
2023-05-08T01:19:54.103Z,99406.01
2023-05-08T01:22:45.488Z,99411.84
2023-05-08T01:25:50.370Z,99415.65
2023-05-08T01:28:54.183Z,99416.11
2023-05-08T01:31:45.307Z,99420.15
2023-05-08T01:34:24.896Z,99419.87
2023-05-08T01:37:02.076Z,99417.41
2023-05-08T01:39:44.835Z,99418.67
2023-05-08T01:42:26.540Z,99416.80
2023-05-08T01:45:03.536Z,99419.02
2023-05-08T01:47:39.594Z,99423.42
2023-05-08T01:50:19.754Z,99422.79
2023-05-08T01:53:00.140Z,99421.63
2023-05-08T01:55:36.927Z,99420.12
2023-05-08T01:58:12.872Z,99419.52
2023-05-08T02:00:48.427Z,99419.77
2023-05-08T02:03:24.834Z,99419.51
2023-05-08T02:05:59.187Z,99419.17
2023-05-08T02:08:32.801Z,99420.23
2023-05-08T02:11:10.301Z,99425.81
2023-05-08T02:13:44.509Z,99415.95
2023-05-08T02:16:22.216Z,99418.61
2023-05-08T02:18:57.325Z,99413.59
2023-05-08T02:21:33.394Z,99411.89
2023-05-08T02:24:09.642Z,99414.90
2023-05-08T02:26:43.630Z,99413.21
2023-05-08T02:29:20.283Z,99414.68
2023-05-08T02:31:54.331Z,99419.15
2023-05-08T02:34:31.186Z,99415.55
2023-05-08T02:37:04.729Z,99419.52
2023-05-08T02:39:39.593Z,99421.20
2023-05-08T02:42:11.978Z,99422.66
2023-05-08T02:44:44.507Z,99422.35
2023-05-08T02:47:23.632Z,99425.73
2023-05-08T02:50:05.128Z,99427.58
2023-05-08T02:52:49.254Z,99430.36
2023-05-08T02:55:35.862Z,99430.63
2023-05-08T02:58:18.847Z,99433.73
2023-05-08T03:01:07.112Z,99430.51
2023-05-08T03:03:47.428Z,99427.36
2023-05-08T03:06:25.547Z,99427.23
2023-05-08T03:09:02.934Z,99425.39
2023-05-08T03:11:42.558Z,99423.11
2023-05-08T03:14:21.087Z,99420.67
2023-05-08T03:16:57.409Z,99417.11
2023-05-08T03:19:37.270Z,99415.45
2023-05-08T03:22:12.696Z,99417.70
2023-05-08T03:24:47.968Z,99422.09
2023-05-08T03:27:21.612Z,99422.75
2023-05-08T03:29:56.046Z,99426.42
2023-05-08T03:32:30.096Z,99421.27
2023-05-08T03:35:05.363Z,99423.62
2023-05-08T03:37:38.017Z,99427.27
2023-05-08T03:40:12.275Z,99429.96
2023-05-08T03:42:45.392Z,99434.20
2023-05-08T03:45:19.494Z,99438.99
2023-05-08T03:47:53.953Z,99436.91
2023-05-08T03:50:27.521Z,99438.77
2023-05-08T03:53:01.101Z,99441.55
2023-05-08T03:55:34.667Z,99444.66
2023-05-08T03:58:16.549Z,99453.44
2023-05-08T04:01:00.469Z,99450.98
2023-05-08T04:03:43.030Z,99453.80
2023-05-08T04:06:28.767Z,99458.09
2023-05-08T04:09:10.119Z,99455.81
2023-05-08T04:11:53.529Z,99457.50
2023-05-08T04:14:31.772Z,99460.81
2023-05-08T04:17:08.637Z,99464.50
2023-05-08T04:19:44.699Z,99466.42
2023-05-08T04:22:22.164Z,99469.56
2023-05-08T04:24:57.226Z,99467.70
2023-05-08T04:27:30.008Z,99466.84
2023-05-08T04:30:02.849Z,99469.43
2023-05-08T04:32:38.373Z,99469.12
2023-05-08T04:35:13.962Z,99474.31
2023-05-08T04:37:47.548Z,99475.08
2023-05-08T04:40:19.940Z,99480.33
2023-05-08T04:42:52.197Z,99482.27
2023-05-08T04:45:25.064Z,99483.42
2023-05-08T04:47:57.194Z,99487.17
2023-05-08T04:50:29.484Z,99490.80
2023-05-08T04:53:01.692Z,99492.95
2023-05-08T04:55:34.030Z,99495.21
2023-05-08T04:58:06.108Z,99499.98
2023-05-08T05:00:39.286Z,99502.37
2023-05-08T05:03:11.807Z,99507.45
2023-05-08T05:05:44.326Z,99514.34
2023-05-08T05:08:18.953Z,99519.01
2023-05-08T05:10:55.203Z,99521.94
2023-05-08T05:13:27.700Z,99527.00
2023-05-08T05:16:02.182Z,99526.00
2023-05-08T05:18:51.415Z,99531.20
2023-05-08T05:21:23.665Z,99526.52
2023-05-08T05:23:55.814Z,99525.77
2023-05-08T05:26:28.127Z,99531.58
2023-05-08T05:29:00.451Z,99529.80
2023-05-08T05:31:32.773Z,99528.89
2023-05-08T05:34:05.077Z,99532.23
2023-05-08T05:36:37.534Z,99532.30
2023-05-08T05:39:10.115Z,99535.80
2023-05-08T05:41:44.291Z,99538.25
2023-05-08T05:44:16.605Z,99539.58
2023-05-08T05:46:48.858Z,99548.42
2023-05-08T05:49:21.679Z,99546.67
2023-05-08T05:51:53.769Z,99544.27
2023-05-08T05:54:26.451Z,99547.41
2023-05-08T05:56:58.783Z,99549.48
2023-05-08T05:59:30.868Z,99553.52
2023-05-08T06:02:03.693Z,99557.13
2023-05-08T06:04:35.894Z,99552.88
2023-05-08T06:07:08.498Z,99558.13
2023-05-08T06:09:41.157Z,99559.88
2023-05-08T06:12:15.216Z,99560.89
2023-05-08T06:14:48.166Z,99556.09
2023-05-08T06:17:20.635Z,99561.27
2023-05-08T06:19:56.063Z,99560.73
2023-05-08T06:22:29.479Z,99565.20
2023-05-08T06:25:01.514Z,99563.09
2023-05-08T06:27:33.972Z,99564.31
2023-05-08T06:30:10.706Z,99554.44
2023-05-08T06:32:42.899Z,99555.98
2023-05-08T06:35:19.506Z,99562.27
2023-05-08T06:37:51.683Z,99562.86
2023-05-08T06:40:24.736Z,99565.42
2023-05-08T06:42:56.826Z,99569.45
2023-05-08T06:45:29.010Z,99572.27
2023-05-08T06:48:03.726Z,99567.91
2023-05-08T06:50:38.607Z,99570.52
2023-05-08T06:53:10.807Z,99569.13
2023-05-08T06:55:45.844Z,99562.51
2023-05-08T06:58:17.989Z,99555.80
2023-05-08T07:00:50.109Z,99570.49
2023-05-08T07:03:22.522Z,99571.70
2023-05-08T07:05:54.618Z,99574.80
2023-05-08T07:08:26.991Z,99578.29
2023-05-08T07:11:01.505Z,99572.95
2023-05-08T07:13:34.701Z,99558.30
2023-05-08T07:16:12.012Z,99553.84
2023-05-08T07:18:44.948Z,99549.71
2023-05-08T07:21:18.862Z,99552.28
2023-05-08T07:23:54.750Z,99558.86
2023-05-08T07:26:27.937Z,99551.68
2023-05-08T07:29:02.194Z,99548.84
2023-05-08T07:31:34.385Z,99553.82
2023-05-08T07:34:07.360Z,99539.61
2023-05-08T07:36:40.365Z,99528.48
2023-05-08T07:39:12.583Z,99533.02
2023-05-08T07:41:47.149Z,99535.39
2023-05-08T07:44:20.523Z,99516.34
2023-05-08T07:46:52.583Z,99525.16
2023-05-08T07:49:24.876Z,99526.64
2023-05-08T07:51:57.027Z,99523.79
2023-05-08T07:54:29.213Z,99509.70
2023-05-08T07:57:01.609Z,99504.69
2023-05-08T07:59:34.234Z,99507.20
2023-05-08T08:02:06.423Z,99515.55
2023-05-08T08:04:38.700Z,99526.58
2023-05-08T08:07:13.772Z,99508.80
2023-05-08T08:09:46.237Z,99519.70
2023-05-08T08:12:18.406Z,99528.38
2023-05-08T08:14:50.535Z,99523.02
2023-05-08T08:17:22.947Z,99519.17
2023-05-08T08:20:00.879Z,99518.42
2023-05-08T08:22:33.423Z,99506.85
2023-05-08T08:25:06.104Z,99513.05
2023-05-08T08:27:39.270Z,99504.70
2023-05-08T08:30:16.977Z,99504.43
2023-05-08T08:32:50.744Z,99502.80
2023-05-08T08:35:29.156Z,99503.25
2023-05-08T08:38:01.313Z,99509.15
2023-05-08T08:40:33.773Z,99509.44
2023-05-08T08:43:05.946Z,99506.29
2023-05-08T08:45:41.757Z,99507.08
2023-05-08T08:48:14.702Z,99508.67
2023-05-08T08:50:48.751Z,99497.29
2023-05-08T08:53:28.433Z,99499.48
2023-05-08T08:56:02.258Z,99483.15
2023-05-08T08:58:39.372Z,99478.48
2023-05-08T09:01:16.586Z,99492.52
2023-05-08T09:03:50.143Z,99501.20
2023-05-08T09:06:22.616Z,99486.85
2023-05-08T09:08:58.062Z,99480.75
2023-05-08T09:11:30.739Z,99451.17
2023-05-08T09:14:03.598Z,99409.38
2023-05-08T09:16:35.938Z,99402.95
2023-05-08T09:19:08.555Z,99417.91
2023-05-08T09:21:40.720Z,99442.47
2023-05-08T09:24:13.001Z,99408.87
2023-05-08T09:26:45.418Z,99410.07
2023-05-08T09:29:20.042Z,99416.55
2023-05-08T09:31:53.866Z,99427.31
2023-05-08T09:34:30.059Z,99434.86
2023-05-08T09:37:14.091Z,99431.88
2023-05-08T09:39:47.799Z,99449.19
2023-05-08T09:42:20.952Z,99457.02
2023-05-08T09:44:54.019Z,99454.81
2023-05-08T09:47:27.086Z,99452.16
2023-05-08T09:50:06.841Z,99445.92
2023-05-08T09:52:40.047Z,99444.89
2023-05-08T09:55:14.317Z,99446.91
2023-05-08T09:57:57.868Z,99415.89
2023-05-08T10:00:33.273Z,99425.42
2023-05-08T10:03:06.302Z,99429.73
2023-05-08T10:05:38.401Z,99424.06
2023-05-08T10:08:23.404Z,99425.61
2023-05-08T10:10:55.477Z,99416.15
2023-05-08T10:13:27.605Z,99399.33
2023-05-08T10:15:59.838Z,99407.04
2023-05-08T10:18:36.541Z,99406.51
2023-05-08T10:21:10.156Z,99403.44
2023-05-08T10:23:43.560Z,99402.82
2023-05-08T10:26:20.379Z,99400.85
2023-05-08T10:28:58.600Z,99400.58
2023-05-08T10:31:44.935Z,99388.96
2023-05-08T10:34:35.124Z,99387.02
2023-05-08T10:37:09.430Z,99376.91
2023-05-08T10:39:43.072Z,99357.36
2023-05-08T10:42:16.721Z,99352.52
2023-05-08T10:44:53.798Z,99332.13
2023-05-08T10:47:34.660Z,99348.09
2023-05-08T10:50:20.609Z,99351.19
2023-05-08T10:53:00.103Z,99361.78
2023-05-08T10:55:33.933Z,99351.52
2023-05-08T10:58:07.684Z,99353.91
2023-05-08T11:01:07.957Z,99341.54
2023-05-08T11:03:44.080Z,99294.48
2023-05-08T11:06:17.400Z,99271.66
2023-05-08T11:08:54.974Z,99249.70
2023-05-08T11:11:38.178Z,99233.45
2023-05-08T11:14:19.447Z,99278.39
2023-05-08T11:17:08.305Z,99290.76
2023-05-08T11:19:56.231Z,99293.14
2023-05-08T11:22:30.723Z,99297.63
2023-05-08T11:25:06.209Z,99304.35
2023-05-08T11:27:58.441Z,99298.36
2023-05-08T11:30:41.991Z,99287.84
2023-05-08T11:33:19.017Z,99289.19
2023-05-08T11:35:56.182Z,99257.20
2023-05-08T11:38:30.671Z,99273.52
2023-05-08T11:41:05.116Z,99276.69
2023-05-08T11:44:17.986Z,99283.11
2023-05-08T11:46:54.747Z,99279.91
2023-05-08T11:49:29.981Z,99283.54
2023-05-08T11:52:06.009Z,99287.17
2023-05-08T11:54:40.936Z,99267.05
2023-05-08T11:57:13.114Z,99255.34
2023-05-08T11:59:45.554Z,99234.38
2023-05-08T12:02:18.482Z,99232.84
2023-05-08T12:04:50.870Z,99236.81
2023-05-08T12:07:27.220Z,99221.23
2023-05-08T12:10:01.741Z,99202.34
2023-05-08T12:12:42.539Z,99204.14
2023-05-08T12:15:16.530Z,99195.13
2023-05-08T12:17:48.982Z,99205.94
2023-05-08T12:20:21.893Z,99221.31
2023-05-08T12:22:54.595Z,99219.45
2023-05-08T12:25:28.639Z,99222.49
2023-05-08T12:28:01.178Z,99240.31
2023-05-08T12:30:33.476Z,99237.88
2023-05-08T12:33:07.132Z,99230.29
2023-05-08T12:35:39.950Z,99236.72
2023-05-08T12:38:12.205Z,99242.64
2023-05-08T12:40:46.519Z,99244.35
2023-05-08T12:43:18.569Z,99248.39
2023-05-08T12:45:53.659Z,99237.27
2023-05-08T12:48:25.792Z,99231.52
2023-05-08T12:51:02.686Z,99228.30
2023-05-08T12:53:35.897Z,99218.87
2023-05-08T12:56:11.129Z,99220.60
2023-05-08T12:58:43.328Z,99209.65
2023-05-08T13:01:16.627Z,99192.81
2023-05-08T13:04:01.654Z,99181.83
2023-05-08T13:06:34.678Z,99173.75
2023-05-08T13:09:06.841Z,99178.30
2023-05-08T13:11:39.613Z,99179.64
2023-05-08T13:14:11.997Z,99168.21
2023-05-08T13:16:48.080Z,99159.70
2023-05-08T13:19:20.948Z,99164.30
2023-05-08T13:21:53.869Z,99157.34
2023-05-08T13:24:27.021Z,99146.86
2023-05-08T13:26:59.227Z,99144.95
2023-05-08T13:29:31.485Z,99155.70
2023-05-08T13:32:04.020Z,99148.35
2023-05-08T13:34:39.444Z,99163.27
2023-05-08T13:37:16.457Z,99162.44
2023-05-08T13:39:51.145Z,99168.39
2023-05-08T13:42:25.492Z,99172.71
2023-05-08T13:48:08.438Z,99137.73
2023-05-08T13:50:40.894Z,99130.12
2023-05-08T13:53:13.081Z,99132.33
2023-05-08T13:55:45.410Z,99140.77
2023-05-08T13:58:20.431Z,99151.52
2023-05-08T14:00:53.928Z,99157.34
2023-05-08T14:03:26.215Z,99155.05
2023-05-08T14:05:58.433Z,99155.08
2023-05-08T14:08:33.064Z,99163.52
2023-05-08T14:11:07.357Z,99161.13
2023-05-08T14:13:39.528Z,99167.52
2023-05-08T14:16:14.467Z,99174.52
2023-05-08T14:18:46.618Z,99174.39
2023-05-08T14:21:18.724Z,99170.98
2023-05-08T14:23:50.875Z,99171.80
2023-05-08T14:26:23.708Z,99175.02
2023-05-08T14:28:55.933Z,99171.57
2023-05-08T14:31:28.491Z,99172.15
2023-05-08T14:34:02.160Z,99173.27
2023-05-08T14:36:37.430Z,99169.39
2023-05-08T14:39:10.076Z,99162.42
2023-05-08T14:41:48.120Z,99170.02
2023-05-08T14:44:34.158Z,99175.55
2023-05-08T14:47:06.717Z,99171.23
2023-05-08T14:49:41.376Z,99164.49
2023-05-08T14:52:13.515Z,99167.43
2023-05-08T14:54:48.026Z,99172.39
2023-05-08T14:57:20.258Z,99172.36
2023-05-08T14:59:55.351Z,99171.67
2023-05-08T15:02:27.770Z,99169.77
2023-05-08T15:05:00.023Z,99165.59
2023-05-08T15:07:32.320Z,99154.02
2023-05-08T15:10:04.629Z,99147.08
2023-05-08T15:12:37.060Z,99155.60
2023-05-08T15:15:10.519Z,99146.48
2023-05-08T15:17:44.610Z,99134.69
2023-05-08T15:20:17.196Z,99140.19
2023-05-08T15:22:49.389Z,99146.40
2023-05-08T15:25:23.475Z,99148.88
2023-05-08T15:27:56.418Z,99154.95
2023-05-08T15:30:33.020Z,99150.88
2023-05-08T15:33:11.559Z,99147.27
2023-05-08T15:35:44.466Z,99139.56
2023-05-08T15:38:17.117Z,99145.73
2023-05-08T15:40:51.722Z,99143.06
2023-05-08T15:43:26.507Z,99136.69
2023-05-08T15:45:59.142Z,99137.64
2023-05-08T15:48:31.813Z,99141.11
2023-05-08T15:51:04.042Z,99153.89
2023-05-08T15:53:36.652Z,99160.11
2023-05-08T15:56:09.569Z,99151.08
2023-05-08T15:58:41.631Z,99158.54
2023-05-08T16:01:13.905Z,99158.09
2023-05-08T16:03:46.136Z,99155.32
2023-05-08T16:06:18.334Z,99159.95
2023-05-08T16:08:52.601Z,99142.89
2023-05-08T16:11:24.960Z,99142.20
2023-05-08T16:13:59.000Z,99137.36
2023-05-08T16:16:31.434Z,99137.23
2023-05-08T16:19:03.783Z,99141.94
2023-05-08T16:21:36.294Z,99145.20
2023-05-08T16:24:09.114Z,99147.18
2023-05-08T16:26:41.594Z,99146.46
2023-05-08T16:29:13.718Z,99141.57
2023-05-08T16:31:46.045Z,99142.17
2023-05-08T16:34:18.334Z,99155.09
2023-05-08T16:36:50.537Z,99162.35
2023-05-08T16:39:22.901Z,99159.96
2023-05-08T16:41:54.999Z,99159.13
2023-05-08T16:44:27.074Z,99166.30
2023-05-08T16:46:59.582Z,99172.25
2023-05-08T16:49:32.034Z,99178.86
2023-05-08T16:52:04.438Z,99185.16
2023-05-08T16:54:36.561Z,99178.79
2023-05-08T16:57:08.694Z,99179.33
2023-05-08T16:59:41.428Z,99180.99
2023-05-08T17:02:18.729Z,99185.70
2023-05-08T17:04:51.646Z,99190.91
2023-05-08T17:07:24.794Z,99190.86
2023-05-08T17:10:00.281Z,99187.53
2023-05-08T17:12:32.532Z,99187.44
2023-05-08T17:15:05.077Z,99189.58
2023-05-08T17:17:37.793Z,99191.53
2023-05-08T17:20:12.962Z,99190.17
2023-05-08T17:22:49.318Z,99194.67
2023-05-08T17:25:22.539Z,99203.20
2023-05-08T17:27:54.850Z,99206.61
2023-05-08T17:30:27.593Z,99209.23
2023-05-08T17:32:59.981Z,99206.34
2023-05-08T17:35:32.196Z,99208.02
2023-05-08T17:38:04.402Z,99205.45
2023-05-08T17:40:36.864Z,99202.30
2023-05-08T17:43:09.527Z,99202.12
2023-05-08T17:45:41.923Z,99207.35
2023-05-08T17:48:14.262Z,99215.46
2023-05-08T17:50:49.155Z,99221.81
2023-05-08T17:53:21.477Z,99227.84
2023-05-08T17:55:54.167Z,99231.31
2023-05-08T17:58:26.866Z,99240.44
2023-05-08T18:00:59.098Z,99247.45
2023-05-08T18:03:31.963Z,99255.19
2023-05-08T18:06:04.078Z,99261.04
2023-05-08T18:08:36.619Z,99267.82
2023-05-08T18:11:16.191Z,99276.00
2023-05-08T18:13:48.524Z,99283.77
2023-05-08T18:16:22.232Z,99287.42
2023-05-08T18:18:54.547Z,99297.39
2023-05-08T18:21:26.684Z,99304.16
2023-05-08T18:23:58.876Z,99318.05
2023-05-08T18:26:31.477Z,99323.35
2023-05-08T18:29:03.898Z,99331.84
2023-05-08T18:31:38.662Z,99341.76
2023-05-08T18:34:13.955Z,99344.10
2023-05-08T18:36:46.413Z,99349.45
2023-05-08T18:39:19.089Z,99355.20
2023-05-08T18:41:51.379Z,99364.71
2023-05-08T18:44:24.439Z,99369.37
2023-05-08T18:46:57.180Z,99375.73
2023-05-08T18:49:29.310Z,99388.98
2023-05-08T18:52:04.133Z,99396.46
2023-05-08T18:54:36.280Z,99397.69
2023-05-08T18:57:08.357Z,99405.38
2023-05-08T18:59:43.024Z,99414.85
2023-05-08T19:02:15.657Z,99426.55
2023-05-08T19:04:48.799Z,99434.43
2023-05-08T19:07:20.916Z,99439.15
2023-05-08T19:09:53.281Z,99443.59
2023-05-08T19:12:29.068Z,99449.71
2023-05-08T19:15:01.215Z,99454.95
2023-05-08T19:17:34.951Z,99460.47
2023-05-08T19:20:08.638Z,99467.52
2023-05-08T19:22:40.808Z,99473.75
2023-05-08T19:25:13.814Z,99481.91
2023-05-08T19:27:46.039Z,99481.64
2023-05-08T19:30:18.332Z,99488.50
2023-05-08T19:32:50.517Z,99494.10
2023-05-08T19:35:22.747Z,99499.02
2023-05-08T19:37:54.838Z,99503.96
2023-05-08T19:40:26.897Z,99510.50
2023-05-08T19:42:59.267Z,99510.75
2023-05-08T19:45:31.502Z,99513.80
2023-05-08T19:48:08.038Z,99513.69
2023-05-08T19:50:43.455Z,99519.67
2023-05-08T19:53:15.680Z,99520.13
2023-05-08T19:55:49.463Z,99516.98
2023-05-08T19:58:21.627Z,99519.99
2023-05-08T20:00:53.855Z,99523.66
2023-05-08T20:03:27.331Z,99521.49
2023-05-08T20:05:59.712Z,99515.66
2023-05-08T20:08:32.035Z,99512.73
2023-05-08T20:11:05.592Z,99510.30
2023-05-08T20:13:38.109Z,99509.29
2023-05-08T20:16:12.710Z,99506.63
2023-05-08T20:18:45.006Z,99507.10
2023-05-08T20:21:17.202Z,99506.65
2023-05-08T20:23:49.482Z,99514.06
2023-05-08T20:26:23.965Z,99510.02
2023-05-08T20:28:56.577Z,99509.11
2023-05-08T20:31:30.777Z,99508.86
2023-05-08T20:34:03.103Z,99510.73
2023-05-08T20:36:36.584Z,99509.81
2023-05-08T20:39:09.273Z,99509.38
2023-05-08T20:41:41.564Z,99509.39
2023-05-08T20:44:17.160Z,99511.83
2023-05-08T20:46:49.287Z,99504.90
2023-05-08T20:49:24.912Z,99505.31
2023-05-08T20:51:57.078Z,99505.21
2023-05-08T20:54:30.019Z,99509.01
2023-05-08T20:57:02.817Z,99511.98
2023-05-08T20:59:34.994Z,99511.19
2023-05-08T21:02:07.207Z,99506.56
2023-05-08T21:04:39.448Z,99509.39
2023-05-08T21:07:11.992Z,99508.17
2023-05-08T21:09:44.171Z,99510.33
2023-05-08T21:12:16.869Z,99509.98
2023-05-08T21:14:50.000Z,99509.05
2023-05-08T21:17:24.975Z,99505.52
2023-05-08T21:20:03.417Z,99503.70
2023-05-08T21:22:37.439Z,99503.60
2023-05-08T21:25:21.381Z,99501.45
2023-05-08T21:27:55.305Z,99503.96
2023-05-08T21:30:27.906Z,99501.67
2023-05-08T21:33:00.217Z,99502.39
2023-05-08T21:35:35.363Z,99502.02
2023-05-08T21:38:07.781Z,99503.70
2023-05-08T21:40:40.982Z,99495.33
2023-05-08T21:43:13.804Z,99502.11
2023-05-08T21:45:45.992Z,99503.42
2023-05-08T21:48:18.594Z,99499.75
2023-05-08T21:50:50.721Z,99499.21
2023-05-08T21:53:23.830Z,99499.19
2023-05-08T21:55:56.088Z,99493.91
2023-05-08T21:58:28.249Z,99493.83
2023-05-08T22:01:00.542Z,99489.73
2023-05-08T22:03:32.887Z,99489.23
2023-05-08T22:06:05.345Z,99491.39
2023-05-08T22:08:37.578Z,99487.92
2023-05-08T22:11:12.495Z,99486.36
2023-05-08T22:13:44.765Z,99485.16
2023-05-08T22:16:17.502Z,99480.14
2023-05-08T22:18:50.059Z,99474.56
2023-05-08T22:21:25.003Z,99471.21
2023-05-08T22:23:57.718Z,99468.75
2023-05-08T22:26:30.665Z,99467.80
2023-05-08T22:29:02.864Z,99467.91
2023-05-08T22:31:35.445Z,99466.29
2023-05-08T22:34:07.698Z,99463.25
2023-05-08T22:36:40.186Z,99459.46
2023-05-08T22:39:13.050Z,99457.36
2023-05-08T22:41:45.245Z,99452.48
2023-05-08T22:44:17.630Z,99452.11
2023-05-08T22:46:50.249Z,99449.86
2023-05-08T22:49:23.056Z,99456.61
2023-05-08T22:51:55.553Z,99454.80
2023-05-08T22:54:27.833Z,99452.18
2023-05-08T22:57:00.012Z,99452.62
2023-05-08T22:59:32.181Z,99454.08
2023-05-08T23:02:04.421Z,99457.48
2023-05-08T23:04:36.680Z,99452.30
2023-05-08T23:07:09.344Z,99453.80
2023-05-08T23:09:41.728Z,99455.02
2023-05-08T23:12:16.841Z,99454.48
2023-05-08T23:14:49.163Z,99456.70
2023-05-08T23:17:21.443Z,99454.72
2023-05-08T23:19:53.754Z,99453.74
2023-05-08T23:22:25.935Z,99449.48
2023-05-08T23:25:00.691Z,99447.05
2023-05-08T23:27:34.921Z,99443.98
2023-05-08T23:30:08.643Z,99442.30
2023-05-08T23:32:41.670Z,99439.20
2023-05-08T23:35:18.192Z,99441.86
2023-05-08T23:37:56.614Z,99440.52
2023-05-08T23:40:29.067Z,99445.33
2023-05-08T23:43:01.209Z,99442.48
2023-05-08T23:45:33.491Z,99441.72
2023-05-08T23:48:06.203Z,99438.84
2023-05-08T23:50:38.603Z,99440.13
2023-05-08T23:53:11.180Z,99437.92
2023-05-08T23:55:43.353Z,99434.69
2023-05-08T23:58:15.677Z,99430.43
